ADDS METAR Data INFO
IDs: Format: Raw Decoded Include TAF

Data at: 0153 UTC 22 Jun 2018

KVIS 220056Z AUTO 29011KT 10SM CLR 34/12 A2985 RMK AO2 SLP110 T03440117
KVIS 212356Z AUTO 29009KT 10SM CLR 35/13 A2986 RMK AO2 SLP116 T03500128 10356 20261 56018
KVIS 212256Z AUTO 31009KT 10SM CLR 35/14 A2988 RMK AO2 SLP120 T03500139
KVIS 212156Z AUTO 29007KT 10SM CLR 33/14 A2990 RMK AO2 SLP127 T03330139 TSNO
KVIS 212056Z AUTO 30006KT 10SM CLR 32/14 A2992 RMK AO2 SLP134 T03220144 58014
KVIS 211956Z AUTO 27006KT 10SM CLR 31/13 A2994 RMK AO2 SLP140 T03060133
KVIS 211856Z AUTO 00000KT 10SM CLR 28/12 A2995 RMK AO2 SLP144 T02830117
KVIS 211756Z AUTO 00000KT 10SM CLR 27/10 A2996 RMK AO2 SLP148 T02670100 10267 20150 50000
KVIS 211656Z AUTO 17005KT 10SM CLR 24/11 A2996 RMK AO2 SLP149 T02390111
KVIS 211556Z AUTO 00000KT 10SM CLR 22/11 A2996 RMK AO2 SLP149 T02220106
KVIS 211356Z AUTO 00000KT 7SM CLR 18/11 A2995 RMK AO2 SLP146 T01780106
KVIS 211256Z AUTO 17003KT 10SM CLR 16/11 A2994 RMK AO2 SLP142 T01560106
KVIS 211156Z AUTO 00000KT 10SM CLR 17/10 A2992 RMK AO2 SLP136 T01670100 10250 20167 53004
KVIS 211056Z AUTO 30006KT 10SM CLR 17/09 A2991 RMK AO2 SLP132 T01720094
KVIS 210956Z AUTO 31007KT 10SM CLR 19/09 A2991 RMK AO2 SLP130 T01890089
KVIS 210856Z AUTO 31009KT 10SM CLR 20/11 A2991 RMK AO2 SLP131 T02000111 51005
KVIS 210756Z AUTO 31007KT 10SM CLR 21/13 A2991 RMK AO2 SLP131 T02110128 403670172
KVIS 210656Z AUTO 31007KT 10SM CLR 23/13 A2990 RMK AO2 SLP129 T02330133
KVIS 210556Z AUTO 31009KT 10SM CLR 25/14 A2989 RMK AO2 SLP126 T02500139 10367 20250 51013
KVIS 210456Z AUTO 31006KT 10SM CLR 27/13 A2988 RMK AO2 SLP122 T02670133
KVIS 210356Z AUTO 31008KT 10SM CLR 28/14 A2987 RMK AO2 SLP117 T02830139
KVIS 210256Z AUTO 29009KT 10SM CLR 31/14 A2985 RMK AO2 SLP112 T03110144 53003
KVIS 210156Z AUTO 29012KT 10SM CLR 33/14 A2984 RMK AO2 SLP109 T03330144